Time;durP1;ratioP1;P1;durP2;ratioP2;P2;SDS_P1;SDS_P2;PMS_P1;PMS_P2;Temp;Humidity;BMP_temperature;BMP_pressure;BME280_temperature;BME280_humidity;BME280_pressure;Samples;Min_cycle;Max_cycle;Signal;HPM_P1;HPM_P2
2022/02/06 00:00:20;;;;;;;10.78;8.38;;;;;;;1.87;70.89;99889.06;1675935;84;21515;-62
2022/02/06 00:02:50;;;;;;;11.23;7.37;;;;;;;1.90;70.71;99891.38;1669605;84;21095;-63
2022/02/06 00:05:16;;;;;;;11.90;6.33;;;;;;;1.88;70.59;99892.02;1654886;84;21192;-62
2022/02/06 00:07:45;;;;;;;5.65;4.67;;;;;;;1.89;70.52;99889.74;1653901;84;20981;-62
2022/02/06 00:10:11;;;;;;;8.17;5.10;;;;;;;1.87;70.58;99889.06;1663911;84;21067;-64
2022/02/06 00:12:37;;;;;;;6.25;4.67;;;;;;;1.87;70.55;99885.94;1667768;83;21345;-63
2022/02/06 00:15:06;;;;;;;4.90;4.20;;;;;;;1.87;70.59;99889.88;1673124;84;21004;-62
2022/02/06 00:17:35;;;;;;;4.17;3.73;;;;;;;1.86;70.48;99885.58;1676867;84;21059;-62
2022/02/06 00:20:02;;;;;;;5.33;4.83;;;;;;;1.88;70.70;99888.07;1667531;84;21044;-63
2022/02/06 00:32:50;;;;;;;5.40;3.93;;;;;;;2.02;70.43;99879.73;1662701;84;21168;-62
2022/02/06 00:41:11;;;;;;;6.80;4.20;;;;;;;2.04;69.83;99888.30;1629107;86;21097;-61
2022/02/06 00:43:11;;;;;;;8.67;4.23;;;;;;;2.03;69.99;99889.26;1636905;86;21052;-62
2022/02/06 00:45:37;;;;;;;7.47;4.50;;;;;;;1.99;70.02;99892.33;1609749;86;21048;-61
2022/02/06 00:48:04;;;;;;;7.45;4.45;;;;;;;1.97;70.14;99887.70;1603727;88;21151;-63
2022/02/06 00:50:32;;;;;;;5.47;4.57;;;;;;;1.95;70.13;99879.96;1638664;86;21065;-61
2022/02/06 00:53:05;;;;;;;6.50;3.80;;;;;;;1.92;70.29;99886.34;1639586;86;21037;-61
2022/02/06 00:55:30;;;;;;;4.70;3.37;;;;;;;1.94;70.33;99880.45;1641541;83;20993;-63
2022/02/06 00:57:56;;;;;;;7.03;5.22;;;;;;;1.95;70.39;99876.84;1635680;86;21083;-61
2022/02/06 01:00:23;;;;;;;8.50;4.87;;;;;;;1.92;70.37;99866.63;1643128;84;21115;-61
2022/02/06 01:02:52;;;;;;;7.30;4.73;;;;;;;1.95;70.40;99876.84;1676213;84;21082;-61
2022/02/06 01:05:19;;;;;;;7.33;4.87;;;;;;;1.96;70.43;99875.06;1663313;84;21002;-62
2022/02/06 01:07:47;;;;;;;7.70;5.40;;;;;;;1.94;70.55;99869.94;1671332;84;21598;-61
2022/02/06 01:10:14;;;;;;;7.67;4.63;;;;;;;1.95;70.60;99874.70;1637455;86;21510;-61
2022/02/06 01:12:44;;;;;;;5.60;4.55;;;;;;;1.91;70.85;99872.03;1641208;83;21065;-61
2022/02/06 01:15:17;;;;;;;7.23;4.83;;;;;;;1.90;70.90;99878.23;1649509;86;21029;-60
2022/02/06 01:17:43;;;;;;;10.13;5.53;;;;;;;1.87;70.96;99872.80;1623862;86;21061;-61
2022/02/06 01:20:20;;;;;;;8.23;5.67;;;;;;;1.87;70.99;99879.37;1673948;84;21116;-61
2022/02/06 01:22:53;;;;;;;10.80;5.85;;;;;;;1.89;71.05;99880.55;1686866;82;20986;-61
2022/02/06 01:25:22;;;;;;;11.93;6.33;;;;;;;1.91;70.96;99881.23;1633915;86;21078;-62
2022/02/06 01:27:59;;;;;;;7.67;5.30;;;;;;;1.91;71.07;99883.86;1677167;84;21154;-61
2022/02/06 01:30:32;;;;;;;9.05;5.50;;;;;;;1.89;71.13;99892.37;1675497;84;21015;-60
2022/02/06 01:33:02;;;;;;;10.90;6.53;;;;;;;1.85;71.29;99881.31;1679118;84;21149;-60
2022/02/06 01:35:31;;;;;;;7.67;5.53;;;;;;;1.82;71.46;99886.84;1670394;84;21054;-61
2022/02/06 01:43:08;;;;;;;8.48;5.58;;;;;;;1.86;71.50;99887.39;1654731;86;20962;-61
2022/02/06 02:02:24;;;;;;;7.47;5.80;;;;;;;1.82;72.21;99882.91;1670443;82;21184;-61
2022/02/06 02:05:11;;;;;;;8.50;5.23;;;;;;;1.85;72.15;99873.43;1674271;84;21082;-61
2022/02/06 02:15:28;;;;;;;10.48;5.30;;;;;;;1.98;71.94;99876.20;1676612;84;21034;-61
2022/02/06 02:18:06;;;;;;;6.47;4.90;;;;;;;1.99;71.98;99876.56;1633400;86;21110;-60
2022/02/06 02:20:38;;;;;;;9.30;4.77;;;;;;;2.02;71.86;99878.42;1668071;84;21542;-60
2022/02/06 02:47:10;;;;;;;9.07;5.57;;;;;;;2.01;72.22;99884.63;1630679;86;21511;-61
2022/02/06 02:49:22;;;;;;;6.30;4.87;;;;;;;2.01;72.29;99884.63;1671872;84;21337;-61
2022/02/06 02:51:49;;;;;;;6.13;5.13;;;;;;;2.00;72.32;99879.05;1667966;82;21078;-60
2022/02/06 02:54:23;;;;;;;6.53;5.30;;;;;;;2.01;72.32;99882.50;1633821;86;21003;-61
2022/02/06 02:57:00;;;;;;;6.57;4.87;;;;;;;1.99;72.32;99881.33;1652524;83;21058;-60
2022/02/06 02:59:25;;;;;;;8.43;4.87;;;;;;;1.89;72.69;99885.80;1664526;84;21086;-61
2022/02/06 03:04:08;;;;;;;7.20;4.87;;;;;;;1.87;72.89;99886.43;1682701;84;21073;-60
2022/02/06 03:06:34;;;;;;;6.97;5.80;;;;;;;1.84;73.26;99884.90;1630640;86;21118;-60
2022/02/06 03:09:02;;;;;;;7.08;5.40;;;;;;;1.85;73.16;99889.69;1648002;86;21525;-61
2022/02/06 03:11:28;;;;;;;9.23;7.23;;;;;;;1.85;73.16;99889.69;1676305;82;21003;-60
2022/02/06 03:14:08;;;;;;;6.00;5.30;;;;;;;1.89;73.13;99889.25;1663889;84;21610;-60
2022/02/06 03:16:38;;;;;;;7.72;7.03;;;;;;;1.89;73.22;99892.37;1679272;84;21074;-60
2022/02/06 03:19:10;;;;;;;9.80;6.40;;;;;;;1.88;73.22;99895.95;1675466;84;21085;-60
2022/02/06 03:21:37;;;;;;;10.83;7.53;;;;;;;1.87;73.36;99893.00;1634775;86;21098;-60
2022/02/06 03:24:31;;;;;;;9.63;6.43;;;;;;;1.90;73.34;99895.33;1669673;84;21017;-61
2022/02/06 03:26:35;;;;;;;9.07;7.73;;;;;;;1.91;73.31;99901.76;1670818;84;21085;-61
2022/02/06 03:29:01;;;;;;;8.68;6.85;;;;;;;1.97;73.13;99895.59;1678915;84;21083;-60
2022/02/06 03:31:27;;;;;;;9.80;6.80;;;;;;;2.00;73.11;99889.56;1668930;84;21640;-61
2022/02/06 03:33:54;;;;;;;8.63;5.58;;;;;;;2.06;73.07;99896.87;1677077;81;21093;-61
2022/02/06 03:36:21;;;;;;;9.80;7.05;;;;;;;2.01;73.01;99892.52;1666017;84;21249;-60
2022/02/06 03:38:48;;;;;;;;;;;;;;;1.95;73.17;99886.04;1654671;86;21018;-60
2022/02/06 03:41:16;;;;;;;8.95;6.15;;;;;;;1.91;73.32;99889.93;1639587;85;20424;-61
2022/02/06 03:46:32;;;;;;;7.50;5.30;;;;;;;1.84;73.51;99898.53;1662704;84;21556;-60
2022/02/06 03:49:13;;;;;;;8.40;5.23;;;;;;;1.83;73.75;99895.55;1687014;84;21014;-60
2022/02/06 03:51:38;;;;;;;6.37;4.90;;;;;;;1.83;73.89;99892.92;1682058;84;21063;-62
2022/02/06 03:54:08;;;;;;;5.20;4.57;;;;;;;1.92;73.70;99899.95;1632984;86;21668;-61
2022/02/06 03:56:35;;;;;;;5.70;5.03;;;;;;;1.97;73.44;99895.09;1681943;82;21021;-60
2022/02/06 03:59:04;;;;;;;5.87;4.30;;;;;;;1.96;73.51;99894.78;1673928;84;21056;-61
2022/02/06 04:01:30;;;;;;;8.73;5.67;;;;;;;1.97;73.59;99896.41;1658601;84;21093;-60
2022/02/06 04:03:57;;;;;;;7.20;5.45;;;;;;;1.98;73.52;99895.45;1683946;84;21054;-60
2022/02/06 04:06:26;;;;;;;5.90;5.20;;;;;;;2.04;73.35;99896.19;1678949;84;21019;-60
2022/02/06 04:08:51;;;;;;;5.20;3.50;;;;;;;2.08;73.26;99898.86;1678710;84;21038;-61
2022/02/06 04:11:30;;;;;;;7.65;4.85;;;;;;;2.11;73.05;99901.68;1690128;84;21091;-62
2022/02/06 04:13:56;;;;;;;7.93;4.93;;;;;;;2.12;72.89;99902.86;1669715;84;21082;-60
2022/02/06 04:16:36;;;;;;;5.70;5.13;;;;;;;2.11;73.04;99911.73;1672862;82;21585;-61
2022/02/06 04:18:53;;;;;;;5.00;4.30;;;;;;;2.13;73.02;99914.22;1639168;86;21066;-61
2022/02/06 04:21:18;;;;;;;5.90;4.80;;;;;;;2.14;72.98;99916.69;1676754;84;21100;-61
2022/02/06 04:23:44;;;;;;;5.55;4.22;;;;;;;2.18;72.76;99917.23;1634599;82;21014;-60
2022/02/06 04:26:10;;;;;;;6.78;4.22;;;;;;;2.19;72.67;99915.45;1676565;84;21006;-59
2022/02/06 04:28:36;;;;;;;7.47;4.70;;;;;;;2.13;72.84;99910.28;1677869;84;21156;-59
2022/02/06 04:31:03;;;;;;;6.17;4.70;;;;;;;2.08;72.86;99919.08;1677508;84;21042;-60
2022/02/06 04:33:30;;;;;;;9.03;4.40;;;;;;;2.05;73.03;99913.60;1674772;84;21748;-61
2022/02/06 04:35:59;;;;;;;6.30;4.87;;;;;;;2.08;73.05;99915.95;1664815;85;21046;-60
2022/02/06 04:49:07;;;;;;;10.30;5.13;;;;;;;2.04;73.11;99916.40;1679866;84;21530;-60
2022/02/06 05:15:08;;;;;;;6.10;5.47;;;;;;;1.98;73.64;99928.31;1688181;83;21041;-60
2022/02/06 05:30:47;;;;;;;7.30;5.80;;;;;;;1.94;73.76;99938.74;1688761;83;21077;-60
2022/02/06 05:33:08;;;;;;;9.25;5.58;;;;;;;1.95;73.93;99949.62;1683683;83;20998;-61
2022/02/06 05:35:36;;;;;;;9.87;6.30;;;;;;;1.95;73.88;99943.87;1685386;83;21048;-60
2022/02/06 05:38:02;;;;;;;6.10;5.00;;;;;;;1.98;73.90;99943.23;1685467;83;21068;-60
2022/02/06 05:40:29;;;;;;;7.80;5.03;;;;;;;2.06;73.65;99952.08;1696413;83;21009;-61
2022/02/06 05:42:57;;;;;;;9.60;5.87;;;;;;;2.13;73.50;99955.80;1695078;83;21013;-60
2022/02/06 05:45:24;;;;;;;9.68;7.87;;;;;;;2.18;73.19;99950.59;1694805;83;21534;-60
2022/02/06 05:47:51;;;;;;;18.53;12.37;;;;;;;2.17;73.25;99952.86;1691724;83;21593;-62
2022/02/06 05:50:19;;;;;;;31.10;19.93;;;;;;;2.16;73.28;99951.23;1692715;83;21039;-61
2022/02/06 05:52:46;;;;;;;47.80;28.17;;;;;;;2.15;73.16;99958.30;1691502;83;21062;-61
2022/02/06 05:55:14;;;;;;;45.73;26.20;;;;;;;2.14;73.11;99961.88;1690469;82;21092;-61
2022/02/06 05:57:42;;;;;;;29.77;17.70;;;;;;;2.17;73.04;99960.75;1707686;82;21054;-61
2022/02/06 06:00:10;;;;;;;21.67;12.47;;;;;;;2.16;73.07;99961.74;1712916;82;21045;-62
2022/02/06 06:02:40;;;;;;;19.33;11.90;;;;;;;2.18;72.95;99961.11;1712295;82;21332;-60
2022/02/06 06:05:07;;;;;;;30.05;17.82;;;;;;;2.23;72.72;99961.02;1713888;82;21097;-62
2022/02/06 06:07:33;;;;;;;34.33;20.67;;;;;;;2.25;72.55;99961.70;1722980;82;21027;-61
2022/02/06 06:10:00;;;;;;;;;;;;;;;2.21;72.78;99963.47;1722932;82;21084;-62
2022/02/06 06:12:26;;;;;;;25.43;15.80;;;;;;;2.21;72.61;99962.16;1717876;82;20130;-61
2022/02/06 06:14:52;;;;;;;18.30;12.90;;;;;;;2.14;72.86;99959.25;1726535;82;21005;-62
2022/02/06 06:17:19;;;;;;;24.70;11.00;;;;;;;2.17;72.87;99962.92;1722986;82;21029;-62
2022/02/06 06:19:48;;;;;;;17.67;12.10;;;;;;;2.23;72.61;99965.46;1720827;82;21028;-62
2022/02/06 06:22:19;;;;;;;26.77;17.63;;;;;;;2.21;72.59;99970.04;1724713;80;21036;-61
2022/02/06 06:24:46;;;;;;;17.60;11.60;;;;;;;2.17;72.57;99972.13;1717450;82;21563;-61
2022/02/06 06:27:12;;;;;;;12.47;8.60;;;;;;;2.09;72.67;99968.89;1682820;84;21022;-61
2022/02/06 06:29:39;;;;;;;9.80;8.00;;;;;;;2.12;72.74;99969.91;1724713;82;21052;-62
2022/02/06 06:32:08;;;;;;;8.20;7.33;;;;;;;2.12;72.74;99969.91;1723423;82;21606;-61
2022/02/06 06:34:34;;;;;;;8.58;7.35;;;;;;;2.06;72.96;99970.48;1683930;84;21021;-61
2022/02/06 06:37:00;;;;;;;11.63;10.43;;;;;;;1.98;73.21;99971.69;1731734;82;21070;-60
2022/02/06 06:39:40;;;;;;;12.55;8.53;;;;;;;1.94;73.36;99972.91;1725986;82;21137;-61
2022/02/06 06:42:06;;;;;;;8.75;7.55;;;;;;;1.94;73.51;99975.09;1717260;82;21052;-63
2022/02/06 06:44:33;;;;;;;11.57;7.57;;;;;;;1.87;73.71;99967.41;1720982;81;21121;-61
2022/02/06 06:47:00;;;;;;;9.77;7.13;;;;;;;1.93;73.68;99966.84;1691279;83;21047;-64
2022/02/06 06:49:26;;;;;;;13.98;8.50;;;;;;;2.00;73.57;99968.89;1693167;83;21607;-61
2022/02/06 06:51:55;;;;;;;12.93;7.92;;;;;;;1.98;73.51;99970.37;1692025;83;21038;-63
2022/02/06 06:54:22;;;;;;;13.70;9.70;;;;;;;1.95;73.66;99968.84;1632975;85;21597;-63
2022/02/06 06:57:01;;;;;;;12.93;9.53;;;;;;;1.85;73.66;99958.84;1687796;83;21034;-62
2022/02/06 06:59:46;;;;;;;13.17;9.70;;;;;;;1.95;73.86;99974.09;1687542;83;21051;-62
2022/02/06 07:02:16;;;;;;;13.53;9.13;;;;;;;2.01;73.62;99972.70;1645852;85;21557;-63
2022/02/06 07:04:22;;;;;;;14.00;9.20;;;;;;;2.03;73.54;99974.70;1643069;85;21312;-61
2022/02/06 07:06:49;;;;;;;9.57;7.60;;;;;;;2.06;73.37;99968.34;1642266;85;21754;-63
2022/02/06 07:09:15;;;;;;;12.68;8.83;;;;;;;2.05;73.44;99967.50;1642250;85;21054;-63
2022/02/06 07:11:41;;;;;;;12.93;10.13;;;;;;;2.10;73.44;99967.09;1641134;84;20993;-63
2022/02/06 07:14:07;;;;;;;16.00;11.95;;;;;;;2.14;73.24;99965.33;1684519;83;21019;-63
2022/02/06 07:16:34;;;;;;;44.85;26.15;;;;;;;2.16;73.41;99966.50;1698302;83;21323;-63
2022/02/06 07:19:00;;;;;;;42.25;25.30;;;;;;;2.17;73.21;99962.06;1687483;83;21541;-63
2022/02/06 07:21:27;;;;;;;38.50;23.42;;;;;;;2.16;72.99;99970.95;1690220;83;21014;-62
2022/02/06 07:23:55;;;;;;;35.90;20.23;;;;;;;2.16;73.06;99969.14;1710593;82;21052;-62
2022/02/06 07:26:21;;;;;;;18.62;14.33;;;;;;;2.18;73.12;99971.63;1708767;82;21077;-63
2022/02/06 07:28:50;;;;;;;25.00;12.47;;;;;;;2.18;73.04;99969.00;1718469;82;21066;-63
2022/02/06 07:31:16;;;;;;;17.20;11.40;;;;;;;2.25;72.84;99971.41;1714538;82;20977;-63
2022/02/06 07:33:42;;;;;;;13.35;10.43;;;;;;;2.32;72.83;99968.55;1706077;82;21592;-64
2022/02/06 07:36:09;;;;;;;16.75;12.05;;;;;;;2.41;72.77;99970.78;1719794;82;21078;-63
2022/02/06 07:38:36;;;;;;;20.20;14.20;;;;;;;2.45;72.80;99966.42;1717756;82;21717;-64
2022/02/06 07:41:03;;;;;;;18.12;12.20;;;;;;;2.53;72.53;99969.64;1717333;82;21577;-70
2022/02/06 07:43:30;;;;;;;13.47;10.97;;;;;;;2.55;72.18;99970.31;1711820;82;21533;-72
2022/02/06 07:45:57;;;;;;;14.53;12.47;;;;;;;2.53;72.29;99970.45;1721960;81;20985;-70
2022/02/06 07:48:23;;;;;;;12.75;10.05;;;;;;;2.55;72.27;99971.63;1723686;82;21017;-71
2022/02/06 07:50:50;;;;;;;13.58;10.05;;;;;;;2.62;72.07;99971.40;1715385;82;21044;-72
2022/02/06 07:53:16;;;;;;;13.45;10.30;;;;;;;2.76;71.66;99973.20;1717659;82;21152;-71
2022/02/06 07:55:42;;;;;;;15.80;10.10;;;;;;;2.85;71.39;99971.83;1721041;82;22045;-73
2022/02/06 07:58:08;;;;;;;11.97;9.30;;;;;;;2.92;70.97;99980.80;1716232;82;21044;-71
2022/02/06 08:00:35;;;;;;;13.78;10.28;;;;;;;2.90;71.01;99976.17;1709920;82;21092;-66
2022/02/06 08:03:02;;;;;;;14.00;9.93;;;;;;;2.89;71.00;99981.08;1708757;82;21104;-72
2022/02/06 08:05:29;;;;;;;10.85;8.83;;;;;;;2.88;70.82;99980.76;1726011;82;21041;-75
2022/02/06 08:07:58;;;;;;;13.13;9.27;;;;;;;2.90;70.80;99977.48;1722773;82;21084;-74
2022/02/06 08:10:25;;;;;;;14.87;9.97;;;;;;;2.90;70.63;99977.48;1720481;82;21125;-74
2022/02/06 08:13:06;;;;;;;14.07;9.60;;;;;;;2.88;70.76;99975.49;1684231;82;21476;-72
2022/02/06 08:15:24;;;;;;;10.60;9.20;;;;;;;2.91;70.57;99976.49;1672232;84;22175;-77
2022/02/06 08:17:51;;;;;;;10.57;8.90;;;;;;;2.95;70.58;99980.16;1683689;84;21088;-74
2022/02/06 08:20:19;;;;;;;13.58;9.53;;;;;;;2.99;70.36;99981.52;1672754;84;21021;-74
2022/02/06 08:22:45;;;;;;;10.43;8.13;;;;;;;3.01;70.22;99982.19;1679339;83;21033;-72
2022/02/06 08:25:14;;;;;;;9.23;8.25;;;;;;;2.99;70.15;99983.65;1680172;83;21552;-73
2022/02/06 08:27:41;;;;;;;9.03;8.07;;;;;;;3.02;70.14;99980.73;1682326;84;21506;-74
2022/02/06 08:30:11;;;;;;;12.27;9.33;;;;;;;3.15;69.87;99989.59;1677986;84;21014;-74
2022/02/06 08:32:38;;;;;;;11.63;8.63;;;;;;;3.21;69.71;99988.17;1683005;84;21016;-74
2022/02/06 08:35:06;;;;;;;11.83;8.93;;;;;;;3.19;69.54;99987.00;1684523;83;20985;-75
2022/02/06 08:37:34;;;;;;;13.93;8.90;;;;;;;3.14;69.29;99987.92;1686651;84;21073;-73
2022/02/06 08:40:06;;;;;;;10.77;8.83;;;;;;;3.11;69.62;99982.97;1680768;84;21051;-76
2022/02/06 08:42:29;;;;;;;12.77;9.30;;;;;;;3.14;69.69;99983.97;1671040;84;21089;-74
2022/02/06 08:44:55;;;;;;;10.48;8.88;;;;;;;3.17;69.54;99981.05;1674767;84;20987;-73
2022/02/06 08:47:21;;;;;;;11.75;8.03;;;;;;;3.22;69.47;99978.81;1690779;83;21063;-76
2022/02/06 08:49:49;;;;;;;;;;;;;;;3.23;69.09;99977.81;1691558;83;21182;-74
2022/02/06 08:52:15;;;;;;;10.00;8.17;;;;;;;3.26;68.93;99981.48;1679409;83;20144;-74
2022/02/06 08:54:42;;;;;;;10.60;8.23;;;;;;;3.21;68.91;99978.95;1686933;83;21848;-71
2022/02/06 08:57:18;;;;;;;10.27;8.17;;;;;;;3.20;68.88;99982.08;1708243;82;21036;-76
2022/02/06 08:59:42;;;;;;;12.83;7.90;;;;;;;3.21;68.58;99975.00;1716752;82;21502;-76
2022/02/06 09:02:08;;;;;;;9.97;8.27;;;;;;;3.34;68.30;99987.81;1692130;82;21092;-77
2022/02/06 09:04:34;;;;;;;10.25;7.78;;;;;;;3.36;67.97;99982.72;1684676;83;21070;-75
2022/02/06 09:07:02;;;;;;;16.70;9.57;;;;;;;3.31;68.04;99977.91;1691402;83;21141;-74
2022/02/06 09:09:29;;;;;;;9.97;6.83;;;;;;;3.29;67.93;99975.89;1684365;83;21021;-76
2022/02/06 09:11:57;;;;;;;15.07;8.33;;;;;;;3.30;67.88;99969.66;1681295;83;21014;-73
2022/02/06 09:14:24;;;;;;;11.10;7.20;;;;;;;3.25;67.90;99960.05;1686754;83;21863;-74
2022/02/06 09:16:52;;;;;;;10.38;7.42;;;;;;;3.21;67.86;99955.25;1696620;83;21053;-74
2022/02/06 09:19:19;;;;;;;7.87;6.87;;;;;;;3.22;67.85;99948.98;1693613;83;21006;-76
2022/02/06 09:21:46;;;;;;;10.40;7.00;;;;;;;3.22;67.51;99941.08;1695952;83;21521;-77
2022/02/06 09:24:15;;;;;;;8.27;7.17;;;;;;;3.20;67.45;99943.89;1691592;82;21038;-76
2022/02/06 09:26:42;;;;;;;10.70;7.73;;;;;;;3.22;67.54;99945.03;1682717;83;21037;-75
2022/02/06 09:29:08;;;;;;;7.92;7.10;;;;;;;3.24;67.20;99957.09;1685220;83;22362;-75
2022/02/06 09:31:36;;;;;;;11.50;6.67;;;;;;;3.28;67.07;99948.41;1689961;83;21084;-76
2022/02/06 09:36:31;;;;;;;10.43;7.13;;;;;;;3.41;66.62;99937.46;1692704;83;21133;-74
2022/02/06 09:38:57;;;;;;;;;;;;;;;3.43;66.39;99928.95;1703496;83;21015;-75
2022/02/06 09:41:23;;;;;;;8.80;6.70;;;;;;;3.46;66.10;99924.17;1696776;83;20119;-76
2022/02/06 09:43:51;;;;;;;;;;;;;;;3.43;66.18;99924.50;1695324;83;21070;-75
2022/02/06 09:46:20;;;;;;;9.75;7.33;;;;;;;3.48;66.04;99921.39;1686456;83;20179;-77
2022/02/06 09:48:49;;;;;;;11.67;7.90;;;;;;;3.49;65.90;99917.29;1695355;83;21511;-75
2022/02/06 09:51:15;;;;;;;9.20;6.90;;;;;;;3.56;65.59;99916.67;1700883;83;21038;-75
2022/02/06 09:53:43;;;;;;;8.73;6.70;;;;;;;3.64;65.21;99915.44;1693588;83;21090;-73
2022/02/06 09:56:12;;;;;;;10.48;8.00;;;;;;;3.67;64.93;99917.27;1645480;85;21097;-73
2022/02/06 10:01:13;;;;;;;8.73;6.87;;;;;;;3.74;64.72;99920.60;1693445;83;21582;-74
2022/02/06 10:03:47;;;;;;;9.20;6.60;;;;;;;3.79;64.42;99913.06;1693474;83;20982;-76
2022/02/06 10:06:27;;;;;;;9.07;6.00;;;;;;;3.78;63.71;99903.49;1687916;83;21002;-75
2022/02/06 10:08:56;;;;;;;9.90;5.80;;;;;;;3.79;63.59;99908.61;1690167;83;21041;-74
2022/02/06 10:11:28;;;;;;;9.23;6.57;;;;;;;3.83;63.37;99904.68;1691186;82;21206;-75
2022/02/06 10:13:54;;;;;;;10.40;5.87;;;;;;;3.87;63.19;99895.97;1715645;82;21632;-77
2022/02/06 10:16:21;;;;;;;9.90;6.25;;;;;;;3.92;62.98;99888.90;1706080;82;21054;-75
2022/02/06 10:18:47;;;;;;;9.77;6.53;;;;;;;3.96;62.89;99876.58;1710231;82;21518;-77
2022/02/06 10:21:21;;;;;;;9.00;6.80;;;;;;;4.01;62.66;99872.14;1710585;82;21367;-75
2022/02/06 10:23:52;;;;;;;11.73;7.87;;;;;;;4.05;62.36;99882.23;1693804;82;21107;-74
2022/02/06 10:26:52;;;;;;;11.27;7.13;;;;;;;4.15;62.76;99884.75;1693549;83;21164;-74
2022/02/06 10:31:55;;;;;;;11.80;6.60;;;;;;;4.46;61.73;99877.13;1686584;83;21109;-76
2022/02/06 10:34:25;;;;;;;10.67;6.73;;;;;;;4.57;61.31;99887.05;1694474;83;21062;-75
2022/02/06 10:37:14;;;;;;;6.83;5.57;;;;;;;4.68;60.27;99883.61;1686144;83;21025;-76
2022/02/06 10:40:00;;;;;;;8.37;5.50;;;;;;;4.72;59.51;99881.98;1702719;83;21556;-75
2022/02/06 10:42:38;;;;;;;7.33;5.53;;;;;;;4.67;59.11;99878.02;1697087;83;21141;-75
2022/02/06 10:45:22;;;;;;;10.30;6.00;;;;;;;4.62;59.22;99870.25;1690160;83;21564;-74
2022/02/06 10:47:53;;;;;;;9.20;6.27;;;;;;;4.60;59.27;99868.27;1678859;83;21069;-76
2022/02/06 10:50:30;;;;;;;8.07;5.37;;;;;;;4.62;59.47;99867.61;1683368;83;21026;-75
2022/02/06 10:53:08;;;;;;;5.47;4.83;;;;;;;4.62;59.38;99867.61;1687540;83;21009;-77
2022/02/06 10:55:35;;;;;;;7.47;5.47;;;;;;;4.60;59.42;99857.20;1681208;82;21106;-76
2022/02/06 10:58:04;;;;;;;;;;;;;;;4.63;59.34;99847.66;1692302;83;21055;-77
2022/02/06 11:00:36;;;;;;;7.43;4.97;;;;;;;4.73;59.21;99854.10;1693598;83;20197;-75
2022/02/06 11:03:34;;;;;;;7.63;6.57;;;;;;;4.76;58.54;99844.52;1680830;83;21028;-77
2022/02/06 11:06:10;;;;;;;7.53;4.63;;;;;;;4.81;58.69;99836.94;1686253;83;21467;-77
2022/02/06 11:08:38;;;;;;;;;;;;;;;4.90;58.50;99842.22;1695917;83;21006;-75
2022/02/06 11:11:08;;;;;;;9.30;5.57;;;;;;;4.97;58.50;99840.58;1696004;82;20147;-77
2022/02/06 11:13:37;;;;;;;8.00;5.17;;;;;;;5.01;58.14;99835.30;1718727;82;21119;-75
2022/02/06 11:16:16;;;;;;;6.00;4.33;;;;;;;5.08;57.57;99836.30;1717961;82;21361;-75
2022/02/06 11:18:56;;;;;;;5.40;3.80;;;;;;;5.12;57.58;99833.64;1722961;82;21053;-75
2022/02/06 11:21:22;;;;;;;6.95;4.72;;;;;;;5.13;56.82;99839.78;1722904;82;21076;-74
2022/02/06 11:23:52;;;;;;;7.87;5.07;;;;;;;5.05;56.77;99838.78;1721031;80;21025;-74
2022/02/06 11:26:22;;;;;;;7.63;4.10;;;;;;;5.01;57.00;99844.54;1715820;82;21001;-76
2022/02/06 11:28:53;;;;;;;7.17;4.13;;;;;;;5.01;56.55;99845.86;1728328;82;21003;-78
2022/02/06 11:31:19;;;;;;;9.07;5.10;;;;;;;5.01;56.90;99840.11;1719319;82;21151;-76
2022/02/06 11:33:47;;;;;;;6.73;4.93;;;;;;;4.97;56.85;99840.58;1723147;81;21084;-74
2022/02/06 11:36:18;;;;;;;6.40;4.23;;;;;;;4.91;57.12;99842.06;1709798;82;21077;-77
2022/02/06 11:45:06;;;;;;;10.03;5.63;;;;;;;4.74;57.81;99838.58;1705674;81;21101;-77
2022/02/06 11:47:55;;;;;;;9.67;5.27;;;;;;;4.70;57.98;99836.44;1679300;84;21029;-77
2022/02/06 11:51:19;;;;;;;11.07;7.63;;;;;;;4.70;58.43;99841.72;1848947;75;22905;-76
2022/02/06 11:53:46;;;;;;;14.80;5.40;;;;;;;4.65;58.67;99828.98;1862413;76;20990;-75
2022/02/06 11:56:35;;;;;;;6.50;4.50;;;;;;;4.63;58.67;99829.17;1805408;76;20952;-76
2022/02/06 11:59:13;;;;;;;7.47;5.00;;;;;;;4.61;58.69;99830.30;1796772;78;21447;-76
2022/02/06 12:01:42;;;;;;;5.60;4.93;;;;;;;4.62;59.02;99828.01;1779260;78;20973;-75
2022/02/06 12:04:22;;;;;;;9.33;4.53;;;;;;;4.63;59.04;99830.97;1761989;80;21540;-76
2022/02/06 12:06:53;;;;;;;8.53;5.27;;;;;;;4.63;58.83;99826.53;1765872;80;21167;-72
2022/02/06 12:09:28;;;;;;;5.80;4.53;;;;;;;4.65;58.75;99834.27;1757616;80;20994;-74
2022/02/06 12:12:12;;;;;;;7.97;4.90;;;;;;;4.60;59.00;99832.13;1763905;77;21073;-75
2022/02/06 12:14:52;;;;;;;11.20;5.43;;;;;;;4.60;59.41;99825.53;1765636;80;21514;-75
2022/02/06 12:20:10;;;;;;;9.80;5.23;;;;;;;4.55;60.03;99819.08;1754164;80;21009;-75
2022/02/06 12:22:45;;;;;;;8.87;6.33;;;;;;;4.54;60.76;99818.73;1767816;80;21074;-75
2022/02/06 12:25:36;;;;;;;12.70;7.23;;;;;;;4.48;61.27;99823.70;1752074;81;21538;-76
2022/02/06 12:28:21;;;;;;;10.07;5.87;;;;;;;4.41;61.83;99825.82;1747453;81;20982;-75
2022/02/06 12:30:54;;;;;;;10.47;7.00;;;;;;;4.30;62.31;99825.62;1770371;81;21059;-75
2022/02/06 12:33:33;;;;;;;18.70;7.53;;;;;;;4.19;63.49;99825.91;1750215;81;21511;-76
2022/02/06 12:38:41;;;;;;;9.27;5.83;;;;;;;3.89;65.59;99820.17;1765581;80;21046;-73
2022/02/06 12:41:27;;;;;;;9.70;6.03;;;;;;;3.88;65.90;99823.31;1776045;80;21077;-75
2022/02/06 12:43:57;;;;;;;9.80;5.83;;;;;;;3.92;66.33;99813.75;1763046;80;21038;-77
2022/02/06 12:46:26;;;;;;;10.10;6.93;;;;;;;3.87;66.47;99807.14;1777109;80;20946;-76
2022/02/06 12:48:59;;;;;;;7.67;6.57;;;;;;;3.83;67.05;99807.62;1776977;80;21491;-78
2022/02/06 12:51:28;;;;;;;9.13;6.50;;;;;;;3.79;67.38;99806.30;1773831;80;21014;-76
2022/02/06 12:54:08;;;;;;;10.10;7.07;;;;;;;3.76;68.26;99796.88;1774389;80;21047;-74
2022/02/06 12:56:35;;;;;;;11.27;6.37;;;;;;;3.72;68.45;99797.36;1768903;80;21028;-75
2022/02/06 12:59:03;;;;;;;10.83;7.03;;;;;;;3.64;68.98;99795.02;1762259;80;21496;-72
2022/02/06 13:01:42;;;;;;;12.17;7.70;;;;;;;3.63;69.13;99796.48;1764791;79;21020;-76
2022/02/06 13:04:16;;;;;;;8.87;7.27;;;;;;;3.69;69.21;99794.06;1762026;80;20976;-74
2022/02/06 13:06:46;;;;;;;11.73;7.73;;;;;;;3.68;69.48;99787.13;1758185;80;21045;-74
2022/02/06 13:09:28;;;;;;;14.50;9.00;;;;;;;3.59;69.85;99787.23;1765550;80;21013;-74
2022/02/06 13:12:04;;;;;;;12.83;8.33;;;;;;;3.50;70.03;99780.62;1758469;80;21003;-77
2022/02/06 13:17:40;;;;;;;14.90;9.33;;;;;;;3.41;69.60;99783.34;1762932;80;21493;-75
2022/02/06 13:38:52;;;;;;;12.90;6.90;;;;;;;3.53;65.95;99764.98;1755097;80;21017;-75
2022/02/06 13:41:22;;;;;;;8.87;6.97;;;;;;;3.55;65.42;99763.50;1753356;80;21058;-76
2022/02/06 13:43:49;;;;;;;9.50;8.13;;;;;;;3.59;65.45;99766.98;1754140;80;21062;-74
2022/02/06 13:46:23;;;;;;;9.40;7.83;;;;;;;3.62;65.00;99769.80;1755286;80;20994;-76
2022/02/06 13:48:50;;;;;;;11.40;7.60;;;;;;;3.65;64.85;99764.20;1754861;80;20987;-74
2022/02/06 13:51:30;;;;;;;10.83;6.80;;;;;;;3.67;64.73;99762.23;1754651;80;21042;-76
2022/02/06 13:54:04;;;;;;;16.70;7.43;;;;;;;3.70;64.51;99767.20;1754125;80;20978;-73
2022/02/06 13:56:36;;;;;;;8.23;6.60;;;;;;;3.73;64.29;99762.94;1770844;79;21031;-73
2022/02/06 13:59:19;;;;;;;10.23;6.10;;;;;;;3.75;64.05;99770.66;1778690;79;21029;-75
2022/02/06 14:01:53;;;;;;;9.43;6.57;;;;;;;3.73;63.35;99767.36;1769151;79;21027;-77
2022/02/06 14:04:32;;;;;;;6.47;5.30;;;;;;;3.69;63.24;99766.38;1765700;80;21074;-76
2022/02/06 14:07:10;;;;;;;8.73;6.23;;;;;;;3.73;63.00;99767.36;1759512;80;21494;-72
2022/02/06 14:12:19;;;;;;;9.17;6.67;;;;;;;3.72;62.50;99765.73;1750675;80;22109;-75
2022/02/06 14:15:00;;;;;;;12.60;5.60;;;;;;;3.74;62.47;99765.08;1762181;80;21089;-74
2022/02/06 14:17:35;;;;;;;10.90;5.97;;;;;;;3.70;62.38;99768.52;1775775;80;21014;-75
2022/02/06 14:20:11;;;;;;;10.83;6.43;;;;;;;3.65;61.96;99768.16;1761564;80;22298;-75
2022/02/06 14:22:49;;;;;;;6.60;5.92;;;;;;;3.62;62.13;99768.48;1763852;80;20980;-75
2022/02/06 14:25:34;;;;;;;8.80;5.60;;;;;;;3.62;62.22;99767.17;1760772;80;21044;-74
2022/02/06 14:28:17;;;;;;;10.47;5.23;;;;;;;3.63;61.95;99770.94;1760497;80;21117;-75
2022/02/06 14:30:43;;;;;;;8.57;5.47;;;;;;;3.10;61.58;99685.05;1765441;80;21358;-76
2022/02/06 14:33:14;;;;;;;8.10;5.25;;;;;;;3.59;61.50;99765.66;1772806;79;21511;-73
2022/02/06 14:36:06;;;;;;;6.50;5.10;;;;;;;3.57;61.37;99763.67;1755901;80;21024;-74
2022/02/06 14:38:43;;;;;;;7.33;4.37;;;;;;;3.54;61.23;99768.42;1733403;81;21048;-74